Bessie, Oklahoma
Current Conditions -  °F | °C
As of 9:35 AM on Saturday 27 Dec 2014 (Local Time) from KCLK Reporting Station
Overcast Overcast  
Wind Chill: -7°   Ceiling: 9500
Heat Index: -1°   Visibility: 10mi
Dew Point: -7°   Wind: 13mph
Humidity: 64%   Direction: 360°N
Pressure: 30.33"   Gusts: NA
Location:  35.39°N, 98.99°W
Report Text: KCLK 271535Z AUTO 36011KT 10SM OVC095 M01/M07 A3033 RMK AO2
Loading
Personal Weather Stations






























Interactive Weather Map New forecast layout! Learn more

10-Day Weather Forecast

Advertisements
Track Severe Weather on mobile